createdAt,value
2019-03-06T00:00:51.550Z,1003.17
2019-03-06T00:01:51.568Z,1003.17
2019-03-06T00:02:51.583Z,1003.15
2019-03-06T00:03:51.597Z,1003.16
2019-03-06T00:04:51.613Z,1003.14
2019-03-06T00:05:51.629Z,1003.10
2019-03-06T00:06:51.645Z,1003.12
2019-03-06T00:07:51.660Z,1003.14
2019-03-06T00:08:51.671Z,1003.13
2019-03-06T00:09:51.687Z,1003.16
2019-03-06T00:10:51.704Z,1003.11
2019-03-06T00:11:51.717Z,1003.12
2019-03-06T00:12:51.734Z,1003.11
2019-03-06T00:13:51.750Z,1003.14
2019-03-06T00:14:51.765Z,1003.14
2019-03-06T00:15:51.783Z,1003.18
2019-03-06T00:16:51.792Z,1003.10
2019-03-06T00:17:51.808Z,1003.12
2019-03-06T00:18:51.826Z,1003.10
2019-03-06T00:19:51.842Z,1003.07
2019-03-06T00:20:51.852Z,1003.09
2019-03-06T00:21:51.870Z,1003.08
2019-03-06T00:22:51.886Z,1003.08
2019-03-06T00:23:51.901Z,1003.09
2019-03-06T00:24:51.914Z,1003.03
2019-03-06T00:25:51.928Z,1003.08
2019-03-06T00:26:51.943Z,1003.04
2019-03-06T00:27:51.958Z,1003.09
2019-03-06T00:28:51.973Z,1003.03
2019-03-06T00:29:51.988Z,1003.07
2019-03-06T00:30:52.005Z,1003.03
2019-03-06T00:31:52.024Z,1003.01
2019-03-06T00:32:52.041Z,1003.07
2019-03-06T00:33:52.049Z,1003.08
2019-03-06T00:34:52.063Z,1003.05
2019-03-06T00:35:52.082Z,1003.08
2019-03-06T00:36:52.101Z,1003.08
2019-03-06T00:37:52.113Z,1003.08
2019-03-06T00:38:52.124Z,1003.06
2019-03-06T00:39:52.147Z,1003.04
2019-03-06T00:40:52.157Z,1003.03
2019-03-06T00:41:52.178Z,1003.00
2019-03-06T00:42:52.186Z,1002.99
2019-03-06T00:43:52.200Z,1003.00
2019-03-06T00:44:52.216Z,1002.93
2019-03-06T00:45:52.231Z,1002.98
2019-03-06T00:46:52.247Z,1002.96
2019-03-06T00:47:52.263Z,1002.97
2019-03-06T00:48:52.273Z,1002.96
2019-03-06T00:49:52.291Z,1002.98
2019-03-06T00:50:52.304Z,1003.00
2019-03-06T00:51:52.320Z,1002.97
2019-03-06T00:52:52.335Z,1002.98
2019-03-06T00:53:52.351Z,1002.97
2019-03-06T00:54:52.373Z,1002.93
2019-03-06T00:55:52.379Z,1002.95
2019-03-06T00:56:52.397Z,1002.97
2019-03-06T00:57:52.410Z,1002.91
2019-03-06T00:58:52.425Z,1002.96
2019-03-06T00:59:52.440Z,1002.96
2019-03-06T01:00:52.463Z,1002.95
2019-03-06T01:01:52.475Z,1002.94
2019-03-06T01:02:52.495Z,1002.97
2019-03-06T01:03:52.503Z,1002.95
2019-03-06T01:04:52.515Z,1002.94
2019-03-06T01:05:52.529Z,1002.99
2019-03-06T01:06:52.549Z,1002.94
2019-03-06T01:07:52.561Z,1002.93
2019-03-06T01:08:52.579Z,1002.97
2019-03-06T01:09:52.593Z,1002.94
2019-03-06T01:10:52.608Z,1002.96
2019-03-06T01:11:52.621Z,1002.92
2019-03-06T01:12:52.634Z,1002.91
2019-03-06T01:13:52.650Z,1002.90
2019-03-06T01:14:52.668Z,1002.88
2019-03-06T01:15:52.684Z,1002.90
2019-03-06T01:16:52.695Z,1002.92
2019-03-06T01:17:52.719Z,1002.91
2019-03-06T01:18:52.727Z,1002.89
2019-03-06T01:19:52.748Z,1002.86
2019-03-06T01:20:52.754Z,1002.82
2019-03-06T01:21:52.771Z,1002.80
2019-03-06T01:22:52.795Z,1002.77
2019-03-06T01:23:52.804Z,1002.73
2019-03-06T01:24:52.869Z,1002.68
2019-03-06T01:25:52.831Z,1002.67
2019-03-06T01:26:52.855Z,1002.68
2019-03-06T01:27:52.864Z,1002.63
2019-03-06T01:28:52.879Z,1002.58
2019-03-06T01:29:52.891Z,1002.58
2019-03-06T01:30:52.909Z,1002.60
2019-03-06T01:31:52.927Z,1002.55
2019-03-06T01:32:52.940Z,1002.60
2019-03-06T01:33:52.953Z,1002.56
2019-03-06T01:34:52.968Z,1002.57
2019-03-06T01:35:52.983Z,1002.57
2019-03-06T01:36:53.002Z,1002.57
2019-03-06T01:37:53.014Z,1002.52
2019-03-06T01:38:53.029Z,1002.53
2019-03-06T01:39:53.042Z,1002.50
2019-03-06T01:40:53.059Z,1002.49
2019-03-06T01:41:53.082Z,1002.47
2019-03-06T01:42:53.089Z,1002.45
2019-03-06T01:43:53.106Z,1002.47
2019-03-06T01:44:53.121Z,1002.41
2019-03-06T01:45:53.136Z,1002.43
2019-03-06T01:46:53.150Z,1002.46
2019-03-06T01:47:53.168Z,1002.47
2019-03-06T01:48:53.181Z,1002.46
2019-03-06T01:49:53.194Z,1002.39
2019-03-06T01:50:53.211Z,1002.37
2019-03-06T01:51:53.228Z,1002.37
2019-03-06T01:52:53.242Z,1002.36
2019-03-06T01:53:53.264Z,1002.39
2019-03-06T01:54:53.273Z,1002.46
2019-03-06T01:55:53.286Z,1002.45
2019-03-06T01:56:53.303Z,1002.42
2019-03-06T01:57:53.319Z,1002.39
2019-03-06T01:58:53.334Z,1002.39
2019-03-06T01:59:53.349Z,1002.35
2019-03-06T02:00:53.362Z,1002.38
2019-03-06T02:01:53.380Z,1002.33
2019-03-06T02:02:53.393Z,1002.34
2019-03-06T02:03:53.409Z,1002.36
2019-03-06T02:04:53.423Z,1002.36
2019-03-06T02:05:53.441Z,1002.36
2019-03-06T02:06:53.457Z,1002.38
2019-03-06T02:07:53.470Z,1002.35
2019-03-06T02:08:53.487Z,1002.34
2019-03-06T02:09:53.500Z,1002.31
2019-03-06T02:10:53.516Z,1002.33
2019-03-06T02:11:53.531Z,1002.29
2019-03-06T02:12:53.548Z,1002.25
2019-03-06T02:13:53.570Z,1002.23
2019-03-06T02:14:53.583Z,1002.20
2019-03-06T02:15:53.591Z,1002.19
2019-03-06T02:16:53.611Z,1002.17
2019-03-06T02:17:53.624Z,1002.12
2019-03-06T02:18:53.645Z,1002.11
2019-03-06T02:19:53.654Z,1002.11
2019-03-06T02:20:53.670Z,1002.13
2019-03-06T02:21:53.685Z,1002.19
2019-03-06T02:22:53.705Z,1002.12
2019-03-06T02:23:53.717Z,1002.12
2019-03-06T02:24:53.730Z,1002.11
2019-03-06T02:25:53.748Z,1002.06
2019-03-06T02:26:53.763Z,1002.07
2019-03-06T02:27:53.777Z,1002.01
2019-03-06T02:28:53.793Z,1002.00
2019-03-06T02:29:53.809Z,1001.94
2019-03-06T02:30:53.823Z,1001.92
2019-03-06T02:31:53.836Z,1001.92
2019-03-06T02:32:53.854Z,1001.92
2019-03-06T02:33:54.075Z,1001.95
2019-03-06T02:34:53.892Z,1001.88
2019-03-06T02:35:53.903Z,1001.88
2019-03-06T02:36:53.917Z,1001.84
2019-03-06T02:37:53.931Z,1001.83
2019-03-06T02:38:53.952Z,1001.81
2019-03-06T02:39:53.962Z,1001.83
2019-03-06T02:40:53.979Z,1001.82
2019-03-06T02:41:53.992Z,1001.80
2019-03-06T02:42:54.007Z,1001.80
2019-03-06T02:43:54.023Z,1001.78
2019-03-06T02:44:54.036Z,1001.76
2019-03-06T02:45:54.063Z,1001.66
2019-03-06T02:46:54.068Z,1001.60
2019-03-06T02:47:54.081Z,1001.61
2019-03-06T02:48:54.103Z,1001.65
2019-03-06T02:49:54.115Z,1001.62
2019-03-06T02:50:54.131Z,1001.59
2019-03-06T02:51:54.145Z,1001.62
2019-03-06T02:52:54.175Z,1001.53
2019-03-06T02:53:54.176Z,1001.46
2019-03-06T02:54:54.197Z,1001.50
2019-03-06T02:55:54.205Z,1001.46
2019-03-06T02:56:54.226Z,1001.47
2019-03-06T02:57:54.237Z,1001.52
2019-03-06T02:58:54.250Z,1001.51
2019-03-06T02:59:54.274Z,1001.50
2019-03-06T03:00:54.280Z,1001.49
2019-03-06T03:01:54.297Z,1001.58
2019-03-06T03:02:54.463Z,1001.59
2019-03-06T03:03:54.328Z,1001.59
2019-03-06T03:04:54.350Z,1001.57
2019-03-06T03:05:54.356Z,1001.54
2019-03-06T03:06:54.376Z,1001.53
2019-03-06T03:07:54.388Z,1001.46
2019-03-06T03:08:54.405Z,1001.46
2019-03-06T03:09:54.428Z,1001.51
2019-03-06T03:10:54.436Z,1001.55
2019-03-06T03:11:54.453Z,1001.50
2019-03-06T03:12:54.466Z,1001.41
2019-03-06T03:13:54.485Z,1001.38
2019-03-06T03:14:54.495Z,1001.37
2019-03-06T03:15:54.518Z,1001.34
2019-03-06T03:16:54.524Z,1001.34
2019-03-06T03:17:54.548Z,1001.35
2019-03-06T03:18:54.556Z,1001.28
2019-03-06T03:19:54.573Z,1001.28
2019-03-06T03:20:54.589Z,1001.29
2019-03-06T03:21:54.610Z,1001.24
2019-03-06T03:22:54.618Z,1001.22
2019-03-06T03:23:54.637Z,1001.20
2019-03-06T03:24:54.653Z,1001.22
2019-03-06T03:25:54.664Z,1001.20
2019-03-06T03:26:54.680Z,1001.14
2019-03-06T03:27:54.696Z,1001.16
2019-03-06T03:28:54.712Z,1001.12
2019-03-06T03:29:54.733Z,1001.11
2019-03-06T03:30:54.762Z,1001.12
2019-03-06T03:31:54.757Z,1001.10
2019-03-06T03:32:54.780Z,1001.04
2019-03-06T03:33:54.787Z,1000.98
2019-03-06T03:34:54.805Z,1000.95
2019-03-06T03:35:54.819Z,1000.95
2019-03-06T03:36:54.832Z,1000.93
2019-03-06T03:37:54.851Z,1000.89
2019-03-06T03:38:54.864Z,1000.90
2019-03-06T03:39:54.891Z,1000.87
2019-03-06T03:40:54.903Z,1000.84
2019-03-06T03:41:54.914Z,1000.82
2019-03-06T03:42:54.924Z,1000.76
2019-03-06T03:43:54.940Z,1000.79
2019-03-06T03:44:54.955Z,1000.78
2019-03-06T03:45:54.984Z,1000.77
2019-03-06T03:46:54.994Z,1000.78
2019-03-06T03:47:55.003Z,1000.75
2019-03-06T03:48:55.021Z,1000.77
2019-03-06T03:49:55.034Z,1000.80
2019-03-06T03:50:55.049Z,1000.82
2019-03-06T03:51:55.069Z,1000.77
2019-03-06T03:52:55.076Z,1000.86
2019-03-06T03:53:55.094Z,1000.84
2019-03-06T03:54:55.119Z,1000.86
2019-03-06T03:55:55.140Z,1000.82
2019-03-06T03:56:55.141Z,1000.78
2019-03-06T03:57:55.154Z,1000.78
2019-03-06T03:58:55.179Z,1000.73
2019-03-06T03:59:55.884Z,1000.69
2019-03-06T04:00:55.202Z,1000.66
2019-03-06T04:01:55.218Z,1000.68
2019-03-06T04:02:55.235Z,1000.60
2019-03-06T04:03:55.250Z,1000.60
2019-03-06T04:04:55.261Z,1000.50
2019-03-06T04:05:55.276Z,1000.51
2019-03-06T04:06:55.294Z,1000.54
2019-03-06T04:07:55.310Z,1000.46
2019-03-06T04:08:55.325Z,1000.47
2019-03-06T04:09:55.340Z,1000.57
2019-03-06T04:10:55.353Z,1000.50
2019-03-06T04:11:55.372Z,1000.54
2019-03-06T04:12:55.389Z,1000.50
2019-03-06T04:13:55.403Z,1000.52
2019-03-06T04:14:55.416Z,1000.58
2019-03-06T04:15:55.437Z,1000.57
2019-03-06T04:16:55.453Z,1000.51
2019-03-06T04:17:55.460Z,1000.50
2019-03-06T04:18:55.476Z,1000.52
2019-03-06T04:19:55.494Z,1000.54
2019-03-06T04:20:55.508Z,1000.55
2019-03-06T04:21:55.525Z,1000.44
2019-03-06T04:22:55.547Z,1000.49
2019-03-06T04:23:55.556Z,1000.51
2019-03-06T04:24:55.572Z,1000.53
2019-03-06T04:25:55.585Z,1000.49
2019-03-06T04:26:55.604Z,1000.49
2019-03-06T04:27:55.617Z,1000.53
2019-03-06T04:28:55.631Z,1000.54
2019-03-06T04:29:55.656Z,1000.58
2019-03-06T04:30:55.665Z,1000.59
2019-03-06T04:31:55.678Z,1000.55
2019-03-06T04:32:55.691Z,1000.55
2019-03-06T04:33:55.708Z,1000.56
2019-03-06T04:34:55.732Z,1000.52
2019-03-06T04:35:55.737Z,1000.53
2019-03-06T04:36:55.756Z,1000.52
2019-03-06T04:37:55.768Z,1000.54
2019-03-06T04:38:55.784Z,1000.58
2019-03-06T04:39:55.800Z,1000.57
2019-03-06T04:40:55.820Z,1000.53
2019-03-06T04:41:55.833Z,1000.52
2019-03-06T04:42:55.845Z,1000.59
2019-03-06T04:43:55.859Z,1000.55
2019-03-06T04:44:55.875Z,1000.53
2019-03-06T04:45:55.892Z,1000.55
2019-03-06T04:46:55.905Z,1000.53
2019-03-06T04:47:55.922Z,1000.53
2019-03-06T04:48:55.935Z,1000.51
2019-03-06T04:49:55.960Z,1000.49
2019-03-06T04:50:55.966Z,1000.49
2019-03-06T04:51:55.983Z,1000.46
2019-03-06T04:52:55.998Z,1000.48
2019-03-06T04:53:56.014Z,1000.47
2019-03-06T04:54:56.027Z,1000.44
2019-03-06T04:55:56.044Z,1000.39
2019-03-06T04:56:56.056Z,1000.37
2019-03-06T04:57:56.073Z,1000.35
2019-03-06T04:58:56.089Z,1000.37
2019-03-06T04:59:56.106Z,1000.31
2019-03-06T05:00:56.119Z,1000.23
2019-03-06T05:01:56.143Z,1000.22
2019-03-06T05:02:56.155Z,1000.23
2019-03-06T05:03:56.167Z,1000.20
2019-03-06T05:04:56.182Z,1000.22
2019-03-06T05:05:56.198Z,1000.22
2019-03-06T05:06:56.216Z,1000.12
2019-03-06T05:07:56.229Z,1000.19
2019-03-06T05:08:56.249Z,1000.11
2019-03-06T05:09:56.258Z,1000.13
2019-03-06T05:10:56.272Z,1000.03
2019-03-06T05:11:56.291Z,1000.04
2019-03-06T05:12:56.304Z,1000.04
2019-03-06T05:13:56.319Z,1000.03
2019-03-06T05:14:56.336Z,1000.01
2019-03-06T05:15:56.363Z,999.97
2019-03-06T05:16:56.369Z,999.96
2019-03-06T05:17:56.380Z,999.95
2019-03-06T05:18:56.398Z,999.91
2019-03-06T05:19:56.411Z,999.92
2019-03-06T05:20:56.428Z,999.84
2019-03-06T05:21:56.442Z,999.83
2019-03-06T05:22:56.460Z,999.90
2019-03-06T05:23:56.474Z,999.95
2019-03-06T05:24:56.489Z,999.94
2019-03-06T05:25:56.506Z,999.94
2019-03-06T05:26:56.522Z,999.94
2019-03-06T05:27:56.537Z,999.94
2019-03-06T05:28:56.561Z,999.94
2019-03-06T05:29:56.569Z,999.92
2019-03-06T05:30:56.582Z,999.89
2019-03-06T05:31:56.598Z,999.91
2019-03-06T05:32:56.612Z,999.85
2019-03-06T05:33:56.629Z,999.83
2019-03-06T05:34:56.646Z,999.77
2019-03-06T05:35:56.660Z,999.75
2019-03-06T05:36:56.676Z,999.75
2019-03-06T05:37:56.690Z,999.73
2019-03-06T05:38:56.705Z,999.73
2019-03-06T05:39:56.724Z,999.70
2019-03-06T05:40:56.739Z,999.65
2019-03-06T05:41:56.755Z,999.64
2019-03-06T05:42:56.769Z,999.68
2019-03-06T05:43:56.784Z,999.70
2019-03-06T05:44:56.799Z,999.69
2019-03-06T05:45:56.815Z,999.72
2019-03-06T05:46:56.833Z,999.70
2019-03-06T05:47:56.848Z,999.66
2019-03-06T05:48:56.862Z,999.61
2019-03-06T05:49:56.882Z,999.61
2019-03-06T05:50:56.893Z,999.52
2019-03-06T05:51:56.908Z,999.51
2019-03-06T05:52:56.924Z,999.55
2019-03-06T05:53:56.944Z,999.54
2019-03-06T05:54:56.959Z,999.55
2019-03-06T05:55:56.970Z,999.46
2019-03-06T05:56:56.986Z,999.46
2019-03-06T05:57:57.005Z,999.50
2019-03-06T05:58:57.020Z,999.49
2019-03-06T05:59:57.034Z,999.51
2019-03-06T06:00:57.047Z,999.48
2019-03-06T06:01:57.067Z,999.48
2019-03-06T06:02:57.083Z,999.44
2019-03-06T06:03:57.098Z,999.36
2019-03-06T06:04:57.114Z,999.32
2019-03-06T06:05:57.127Z,999.27
2019-03-06T06:06:57.143Z,999.26
2019-03-06T06:07:57.159Z,999.23
2019-03-06T06:08:57.176Z,999.14
2019-03-06T06:09:57.190Z,999.10
2019-03-06T06:10:57.209Z,999.04
2019-03-06T06:11:57.225Z,999.06
2019-03-06T06:12:57.239Z,999.04
2019-03-06T06:13:57.262Z,999.07
2019-03-06T06:14:57.269Z,999.06
2019-03-06T06:15:57.284Z,999.08
2019-03-06T06:16:57.303Z,999.09
2019-03-06T06:17:57.325Z,999.11
2019-03-06T06:18:57.333Z,999.02
2019-03-06T06:19:57.368Z,999.01
2019-03-06T06:20:57.367Z,998.96
2019-03-06T06:21:57.381Z,998.95
2019-03-06T06:22:57.415Z,998.88
2019-03-06T06:23:57.413Z,998.95
2019-03-06T06:24:57.427Z,998.97
2019-03-06T06:25:57.441Z,998.95
2019-03-06T06:26:57.463Z,998.94
2019-03-06T06:27:57.475Z,998.93
2019-03-06T06:28:57.490Z,998.96
2019-03-06T06:29:57.503Z,998.92
2019-03-06T06:30:57.528Z,998.96
2019-03-06T06:31:57.537Z,999.04
2019-03-06T06:32:57.554Z,999.06
2019-03-06T06:33:57.576Z,999.04
2019-03-06T06:34:57.582Z,998.96
2019-03-06T06:35:57.600Z,999.00
2019-03-06T06:36:57.615Z,998.98
2019-03-06T06:37:57.630Z,998.97
2019-03-06T06:38:57.655Z,998.97
2019-03-06T06:39:57.670Z,998.88
2019-03-06T06:40:57.678Z,998.93
2019-03-06T06:41:57.699Z,998.98
2019-03-06T06:42:57.712Z,998.93
2019-03-06T06:43:57.726Z,998.95
2019-03-06T06:44:57.740Z,998.93
2019-03-06T06:45:57.760Z,998.94
2019-03-06T06:46:57.775Z,998.88
2019-03-06T06:47:57.791Z,998.83
2019-03-06T06:48:57.806Z,998.80
2019-03-06T06:49:57.820Z,998.73
2019-03-06T06:51:01.594Z,998.70
2019-03-06T06:51:57.853Z,998.76
2019-03-06T06:52:57.868Z,998.74
2019-03-06T06:53:57.889Z,998.69
2019-03-06T06:54:57.904Z,998.69
2019-03-06T06:55:57.918Z,998.70
2019-03-06T06:56:57.930Z,998.66
2019-03-06T06:57:57.956Z,998.69
2019-03-06T06:58:57.963Z,998.66
2019-03-06T06:59:57.981Z,998.69
2019-03-06T07:00:57.997Z,998.64
2019-03-06T07:01:58.011Z,998.62
2019-03-06T07:02:58.029Z,998.62
2019-03-06T07:03:58.043Z,998.56
2019-03-06T07:04:58.057Z,998.52
2019-03-06T07:05:58.077Z,998.54
2019-03-06T07:06:58.093Z,998.51
2019-03-06T07:07:58.110Z,998.52
2019-03-06T07:08:58.124Z,998.51
2019-03-06T07:09:58.137Z,998.49
2019-03-06T07:10:58.157Z,998.47
2019-03-06T07:11:58.171Z,998.48
2019-03-06T07:12:58.191Z,998.44
2019-03-06T07:13:58.202Z,998.47
2019-03-06T07:14:58.219Z,998.44
2019-03-06T07:15:58.237Z,998.45
2019-03-06T07:16:58.365Z,998.36
2019-03-06T07:17:58.275Z,998.37
2019-03-06T07:18:58.283Z,998.36
2019-03-06T07:19:58.301Z,998.31
2019-03-06T07:20:58.316Z,998.35
2019-03-06T07:21:58.333Z,998.30
2019-03-06T07:22:58.350Z,998.30
2019-03-06T07:23:58.363Z,998.29
2019-03-06T07:24:58.379Z,998.26
2019-03-06T07:25:58.396Z,998.26
2019-03-06T07:26:58.411Z,998.22
2019-03-06T07:27:58.427Z,998.23
2019-03-06T07:28:58.445Z,998.25
2019-03-06T07:29:58.461Z,998.21
2019-03-06T07:30:58.478Z,998.27
2019-03-06T07:31:58.501Z,998.20
2019-03-06T07:32:58.512Z,998.19
2019-03-06T07:33:58.523Z,998.16
2019-03-06T07:34:58.542Z,998.12
2019-03-06T07:35:58.562Z,998.09
2019-03-06T07:36:58.577Z,998.09
2019-03-06T07:37:58.591Z,998.07
2019-03-06T07:38:58.608Z,998.03
2019-03-06T07:39:58.622Z,998.02
2019-03-06T07:40:58.640Z,998.06
2019-03-06T07:41:58.662Z,998.05
2019-03-06T07:42:58.672Z,998.07
2019-03-06T07:43:58.697Z,998.05
2019-03-06T07:44:58.705Z,997.98
2019-03-06T07:45:58.724Z,998.02
2019-03-06T07:46:58.738Z,998.05
2019-03-06T07:47:58.758Z,998.07
2019-03-06T07:48:58.768Z,998.09
2019-03-06T07:49:58.787Z,998.06
2019-03-06T07:50:58.801Z,998.10
2019-03-06T07:51:58.820Z,998.10
2019-03-06T07:52:58.833Z,998.07
2019-03-06T07:53:58.850Z,998.11
2019-03-06T07:54:58.866Z,998.07
2019-03-06T07:55:58.883Z,998.14
2019-03-06T07:56:59.373Z,998.08
2019-03-06T07:57:58.916Z,998.09
2019-03-06T07:58:58.931Z,998.06
2019-03-06T07:59:58.949Z,998.15
2019-03-06T08:00:58.965Z,998.12
2019-03-06T08:01:58.983Z,998.09
2019-03-06T08:02:58.997Z,998.11
2019-03-06T08:03:59.017Z,998.08
2019-03-06T08:04:59.033Z,998.09
2019-03-06T08:05:59.053Z,998.10
2019-03-06T08:06:59.065Z,998.09
2019-03-06T08:07:59.090Z,998.14
2019-03-06T08:08:59.098Z,998.11
2019-03-06T08:09:59.116Z,998.07
2019-03-06T08:10:59.131Z,998.04
2019-03-06T08:11:59.150Z,998.05
2019-03-06T08:12:59.170Z,997.99
2019-03-06T08:13:59.187Z,998.03
2019-03-06T08:14:59.197Z,997.99
2019-03-06T08:15:59.220Z,998.00
2019-03-06T08:16:59.230Z,997.92
2019-03-06T08:17:59.247Z,997.93
2019-03-06T08:18:59.273Z,997.93
2019-03-06T08:19:59.281Z,997.89
2019-03-06T08:20:59.299Z,997.92
2019-03-06T08:21:59.313Z,997.83
2019-03-06T08:22:59.340Z,997.85
2019-03-06T08:23:59.353Z,997.87
2019-03-06T08:24:59.366Z,997.85
2019-03-06T08:25:59.383Z,997.81
2019-03-06T08:26:59.403Z,997.76
2019-03-06T08:27:59.417Z,997.76
2019-03-06T08:28:59.432Z,997.73
2019-03-06T08:29:59.451Z,997.75
2019-03-06T08:30:59.469Z,997.76
2019-03-06T08:31:59.485Z,997.75
2019-03-06T08:32:59.502Z,997.72
2019-03-06T08:33:59.529Z,997.71
2019-03-06T08:34:59.541Z,997.69
2019-03-06T08:35:59.560Z,997.72
2019-03-06T08:36:59.569Z,997.66
2019-03-06T08:37:59.584Z,997.67
2019-03-06T08:38:59.603Z,997.62
2019-03-06T08:39:59.621Z,997.53
2019-03-06T08:41:04.534Z,997.52
2019-03-06T08:41:59.655Z,997.51
2019-03-06T08:42:59.670Z,997.48
2019-03-06T08:43:59.691Z,997.49
2019-03-06T08:44:59.706Z,997.47
2019-03-06T08:45:59.722Z,997.43
2019-03-06T08:46:59.742Z,997.46
2019-03-06T08:47:59.758Z,997.44
2019-03-06T08:48:59.774Z,997.44
2019-03-06T08:49:59.792Z,997.43
2019-03-06T08:50:59.811Z,997.43
2019-03-06T08:51:59.825Z,997.43
2019-03-06T08:52:59.843Z,997.32
2019-03-06T08:53:59.861Z,997.36
2019-03-06T08:54:59.877Z,997.34
2019-03-06T08:55:59.898Z,997.35
2019-03-06T08:56:59.911Z,997.35
2019-03-06T08:57:59.931Z,997.31
2019-03-06T08:58:59.946Z,997.32
2019-03-06T08:59:59.969Z,997.25
2019-03-06T09:00:59.981Z,997.25
2019-03-06T09:02:01.184Z,997.29
2019-03-06T09:03:00.023Z,997.25
2019-03-06T09:04:00.034Z,997.20
2019-03-06T09:05:00.055Z,997.15
2019-03-06T09:06:00.068Z,997.08
2019-03-06T09:07:00.088Z,997.12
2019-03-06T09:08:00.111Z,997.09
2019-03-06T09:09:02.179Z,997.06
2019-03-06T09:10:00.312Z,997.04
2019-03-06T09:11:03.116Z,997.01
2019-03-06T09:12:00.177Z,997.09
2019-03-06T09:13:00.189Z,997.01
2019-03-06T09:14:00.207Z,997.11
2019-03-06T09:15:00.339Z,997.05
2019-03-06T09:16:00.243Z,997.05
2019-03-06T09:17:00.264Z,997.02
2019-03-06T09:18:08.840Z,997.01
2019-03-06T09:19:00.294Z,997.04
2019-03-06T09:20:00.335Z,997.04
2019-03-06T09:21:00.330Z,997.01
2019-03-06T09:22:00.349Z,997.07
2019-03-06T09:23:00.369Z,997.06
2019-03-06T09:24:00.389Z,997.08
2019-03-06T09:25:00.404Z,997.05
2019-03-06T09:26:00.417Z,997.05
2019-03-06T09:27:00.436Z,996.96
2019-03-06T09:28:00.452Z,997.02
2019-03-06T09:29:01.445Z,996.98
2019-03-06T09:30:00.513Z,996.96
2019-03-06T09:31:00.512Z,996.94
2019-03-06T09:32:00.532Z,996.90
2019-03-06T09:33:00.541Z,996.82
2019-03-06T09:34:00.561Z,996.84
2019-03-06T09:35:00.577Z,996.85
2019-03-06T09:36:00.596Z,996.82
2019-03-06T09:37:00.614Z,996.79
2019-03-06T09:38:00.633Z,996.76
2019-03-06T09:39:00.654Z,996.74
2019-03-06T09:40:00.666Z,996.74
2019-03-06T09:41:00.685Z,996.72
2019-03-06T09:42:00.703Z,996.67
2019-03-06T09:43:00.721Z,996.70
2019-03-06T09:44:00.741Z,996.67
2019-03-06T09:45:00.764Z,996.66
2019-03-06T09:46:00.774Z,996.63
2019-03-06T09:47:00.802Z,996.59
2019-03-06T09:48:00.810Z,996.52
2019-03-06T09:49:00.830Z,996.50
2019-03-06T09:50:00.850Z,996.44
2019-03-06T09:51:00.863Z,996.50
2019-03-06T09:52:00.884Z,996.40
2019-03-06T09:53:00.901Z,996.41
2019-03-06T09:54:00.920Z,996.37
2019-03-06T09:55:00.939Z,996.37
2019-03-06T09:56:00.958Z,996.35
2019-03-06T09:57:00.974Z,996.28
2019-03-06T09:58:00.993Z,996.25
2019-03-06T09:59:01.009Z,996.25
2019-03-06T10:00:01.029Z,996.30
2019-03-06T10:01:01.050Z,996.13
2019-03-06T10:02:06.877Z,996.22
2019-03-06T10:03:01.086Z,996.17
2019-03-06T10:04:01.105Z,996.03
2019-03-06T10:05:01.120Z,996.03
2019-03-06T10:06:01.140Z,996.04
2019-03-06T10:07:01.154Z,996.06
2019-03-06T10:08:01.280Z,996.00
2019-03-06T10:09:01.194Z,996.08
2019-03-06T10:10:01.211Z,996.02
2019-03-06T10:11:01.231Z,995.86
2019-03-06T10:12:01.256Z,995.96
2019-03-06T10:13:01.267Z,995.91
2019-03-06T10:14:01.289Z,995.87
2019-03-06T10:15:01.306Z,995.93
2019-03-06T10:16:01.330Z,995.89
2019-03-06T10:17:01.346Z,995.83
2019-03-06T10:18:01.360Z,995.79
2019-03-06T10:19:01.376Z,995.75
2019-03-06T10:20:01.396Z,995.76
2019-03-06T10:21:01.416Z,995.77
2019-03-06T10:22:01.434Z,995.69
2019-03-06T10:23:01.454Z,995.69
2019-03-06T10:24:01.470Z,995.57
2019-03-06T10:25:01.492Z,995.56
2019-03-06T10:26:01.510Z,995.64
2019-03-06T10:27:01.546Z,995.62
2019-03-06T10:28:06.362Z,995.52
2019-03-06T10:29:01.562Z,995.62
2019-03-06T10:30:01.584Z,995.56
2019-03-06T10:31:02.683Z,995.56
2019-03-06T10:32:01.626Z,995.51
2019-03-06T10:33:01.641Z,995.40
2019-03-06T10:34:01.659Z,995.33
2019-03-06T10:35:01.681Z,995.44
2019-03-06T10:36:01.704Z,995.43
2019-03-06T10:37:01.714Z,995.46
2019-03-06T10:38:01.737Z,995.43
2019-03-06T10:39:01.754Z,995.41
2019-03-06T10:40:01.773Z,995.35
2019-03-06T10:41:01.794Z,995.41
2019-03-06T10:42:01.808Z,995.34
2019-03-06T10:43:01.828Z,995.38
2019-03-06T10:44:01.849Z,995.29
2019-03-06T10:45:01.877Z,995.27
2019-03-06T10:46:01.911Z,995.36
2019-03-06T10:47:01.907Z,995.11
2019-03-06T10:48:01.923Z,995.22
2019-03-06T10:49:01.981Z,995.24
2019-03-06T10:50:01.961Z,995.13
2019-03-06T10:51:01.982Z,995.16
2019-03-06T10:52:02.010Z,995.19
2019-03-06T10:53:02.019Z,995.13
2019-03-06T10:54:02.038Z,995.32
2019-03-06T10:55:02.064Z,995.33
2019-03-06T10:56:02.077Z,995.28
2019-03-06T10:57:02.096Z,995.28
2019-03-06T10:58:02.116Z,995.23
2019-03-06T10:59:02.140Z,995.27
2019-03-06T11:00:02.158Z,995.12
2019-03-06T11:01:02.181Z,995.19
2019-03-06T11:02:02.193Z,995.15
2019-03-06T11:03:02.215Z,995.20
2019-03-06T11:04:02.235Z,995.13
2019-03-06T11:05:02.256Z,995.15
2019-03-06T11:06:02.277Z,995.18
2019-03-06T11:07:02.293Z,995.17
2019-03-06T11:08:02.321Z,995.21
2019-03-06T11:09:02.332Z,995.16
2019-03-06T11:10:02.353Z,995.16
2019-03-06T11:11:02.372Z,995.04
2019-03-06T11:12:02.390Z,995.10
2019-03-06T11:13:02.410Z,995.11
2019-03-06T11:14:06.197Z,995.13
2019-03-06T11:15:02.454Z,995.06
2019-03-06T11:16:02.471Z,995.11
2019-03-06T11:17:02.487Z,995.13
2019-03-06T11:18:02.506Z,995.11
2019-03-06T11:19:02.527Z,995.01
2019-03-06T11:20:02.547Z,995.02
2019-03-06T11:21:02.564Z,994.98
2019-03-06T11:22:02.585Z,994.95
2019-03-06T11:23:02.650Z,994.80
2019-03-06T11:24:02.630Z,994.89
2019-03-06T11:25:02.654Z,994.95
2019-03-06T11:26:02.974Z,994.88
2019-03-06T11:27:02.692Z,994.87
2019-03-06T11:28:02.710Z,994.84
2019-03-06T11:29:02.724Z,994.86
2019-03-06T11:30:03.201Z,994.73
2019-03-06T11:31:02.768Z,994.83
2019-03-06T11:32:02.782Z,994.79
2019-03-06T11:33:02.804Z,994.76
2019-03-06T11:34:02.832Z,994.72
2019-03-06T11:35:02.844Z,994.75
2019-03-06T11:36:02.885Z,994.67
2019-03-06T11:37:02.880Z,994.75
2019-03-06T11:38:02.904Z,994.76
2019-03-06T11:39:02.919Z,994.71
2019-03-06T11:40:02.944Z,994.69
2019-03-06T11:41:02.962Z,994.78
2019-03-06T11:42:02.982Z,994.74
2019-03-06T11:43:03.002Z,994.69
2019-03-06T11:44:03.029Z,994.72
2019-03-06T11:45:03.040Z,994.70
2019-03-06T11:46:03.066Z,994.64
2019-03-06T11:47:03.089Z,994.67
2019-03-06T11:48:03.105Z,994.68
2019-03-06T11:49:03.776Z,994.68
2019-03-06T11:50:03.141Z,994.64
2019-03-06T11:51:03.162Z,994.62
2019-03-06T11:52:03.184Z,994.60
2019-03-06T11:53:03.203Z,994.57
2019-03-06T11:54:03.227Z,994.49
2019-03-06T11:55:06.356Z,994.43
2019-03-06T11:56:03.266Z,994.49
2019-03-06T11:57:03.288Z,994.46
2019-03-06T11:58:03.303Z,994.47
2019-03-06T11:59:03.336Z,994.44
2019-03-06T12:00:03.347Z,994.41
2019-03-06T12:01:03.366Z,994.33
2019-03-06T12:02:03.397Z,994.37
2019-03-06T12:03:03.407Z,994.36
2019-03-06T12:04:03.427Z,994.32
2019-03-06T12:05:03.453Z,994.32
2019-03-06T12:06:03.467Z,994.28
2019-03-06T12:07:03.488Z,994.21
2019-03-06T12:08:03.510Z,994.24
2019-03-06T12:09:03.529Z,994.10
2019-03-06T12:10:03.556Z,994.13
2019-03-06T12:11:03.569Z,994.17
2019-03-06T12:12:03.591Z,994.15
2019-03-06T12:13:03.612Z,994.18
2019-03-06T12:14:03.632Z,994.09
2019-03-06T12:15:03.655Z,994.02
2019-03-06T12:16:03.673Z,994.05
2019-03-06T12:17:03.691Z,994.04
2019-03-06T12:18:03.712Z,993.91
2019-03-06T12:19:03.734Z,993.88